createdAt,value
2023-03-13T00:03:10.226Z,2.89
2023-03-13T00:06:35.998Z,2.93
2023-03-13T00:09:59.704Z,2.98
2023-03-13T00:13:22.827Z,3.02
2023-03-13T00:16:46.198Z,3.08
2023-03-13T00:20:13.460Z,3.14
2023-03-13T00:23:38.755Z,3.17
2023-03-13T00:27:04.686Z,3.16
2023-03-13T00:30:27.790Z,3.17
2023-03-13T00:33:53.139Z,3.16
2023-03-13T00:37:16.533Z,3.16
2023-03-13T00:40:40.480Z,3.13
2023-03-13T00:44:03.985Z,3.10
2023-03-13T00:47:27.602Z,3.08
2023-03-13T00:50:51.444Z,3.04
2023-03-13T00:54:14.885Z,3.03
2023-03-13T00:57:38.560Z,3.01
2023-03-13T01:01:07.759Z,2.97
2023-03-13T01:04:30.867Z,2.93
2023-03-13T01:07:53.207Z,2.92
2023-03-13T01:11:19.031Z,2.90
2023-03-13T01:14:42.734Z,2.89
2023-03-13T01:18:06.515Z,2.88
2023-03-13T01:21:30.561Z,2.87
2023-03-13T01:24:53.706Z,2.87
2023-03-13T01:28:16.801Z,2.87
2023-03-13T01:31:40.358Z,2.89
2023-03-13T01:35:05.364Z,2.89
2023-03-13T01:38:29.295Z,2.92
2023-03-13T01:41:52.954Z,2.96
2023-03-13T01:45:53.631Z,2.98
2023-03-13T01:49:21.326Z,3.03
2023-03-13T01:52:57.910Z,3.06
2023-03-13T01:56:31.338Z,3.12
2023-03-13T02:00:00.531Z,3.15
2023-03-13T02:03:24.234Z,3.15
2023-03-13T02:06:52.337Z,3.16
2023-03-13T02:10:18.608Z,3.14
2023-03-13T02:13:42.610Z,3.10
2023-03-13T02:17:07.799Z,3.05
2023-03-13T02:20:31.303Z,2.97
2023-03-13T02:23:59.363Z,2.92
2023-03-13T02:27:22.900Z,2.87
2023-03-13T02:30:46.107Z,2.82
2023-03-13T02:34:11.496Z,2.77
2023-03-13T02:37:37.229Z,2.77
2023-03-13T02:41:04.619Z,2.77
2023-03-13T02:44:28.789Z,2.76
2023-03-13T02:47:52.635Z,2.76
2023-03-13T02:51:20.844Z,2.78
2023-03-13T02:54:48.008Z,2.83
2023-03-13T02:58:11.186Z,2.88
2023-03-13T03:01:34.770Z,2.93
2023-03-13T03:04:58.341Z,3.00
2023-03-13T03:08:21.378Z,3.07
2023-03-13T03:11:44.863Z,3.08
2023-03-13T03:15:11.546Z,3.12
2023-03-13T03:18:40.353Z,3.17
2023-03-13T03:22:03.733Z,3.20
2023-03-13T03:25:29.449Z,3.22
2023-03-13T03:28:53.431Z,3.19
2023-03-13T03:32:17.153Z,3.16
2023-03-13T03:35:40.772Z,3.12
2023-03-13T03:39:04.770Z,3.09
2023-03-13T03:42:29.205Z,3.06
2023-03-13T03:45:53.051Z,3.01
2023-03-13T03:49:17.700Z,2.97
2023-03-13T03:52:45.649Z,2.94
2023-03-13T03:56:09.555Z,2.93
2023-03-13T03:59:36.385Z,2.94
2023-03-13T04:03:02.762Z,2.96
2023-03-13T04:06:25.114Z,3.00
2023-03-13T04:09:48.900Z,3.00
2023-03-13T04:13:20.842Z,3.04
2023-03-13T04:16:44.601Z,3.11
2023-03-13T04:20:13.864Z,3.15
2023-03-13T04:23:37.782Z,3.18
2023-03-13T04:27:03.149Z,3.22
2023-03-13T04:30:27.209Z,3.27
2023-03-13T04:34:14.341Z,3.31
2023-03-13T04:37:54.686Z,3.38
2023-03-13T04:41:25.989Z,3.43
2023-03-13T04:45:13.120Z,3.46
2023-03-13T04:48:55.037Z,3.47
2023-03-13T04:52:39.222Z,3.47
2023-03-13T04:56:42.786Z,3.47
2023-03-13T05:00:26.291Z,3.45
2023-03-13T05:04:15.980Z,3.45
2023-03-13T05:07:38.172Z,3.43
2023-03-13T05:11:24.862Z,3.37
2023-03-13T05:14:52.343Z,3.36
2023-03-13T05:18:35.694Z,3.37
2023-03-13T05:22:27.823Z,3.38
2023-03-13T05:26:09.570Z,3.42
2023-03-13T05:29:53.061Z,3.48
2023-03-13T05:33:35.412Z,3.55
2023-03-13T05:37:21.384Z,3.64
2023-03-13T05:40:55.630Z,3.72
2023-03-13T05:44:37.708Z,3.80
2023-03-13T05:48:21.073Z,3.88
2023-03-13T05:52:16.628Z,3.99
2023-03-13T05:55:38.817Z,4.06
2023-03-13T05:59:31.508Z,4.09
2023-03-13T06:03:14.484Z,4.15
2023-03-13T06:06:41.409Z,4.18
2023-03-13T06:10:07.206Z,4.21
2023-03-13T06:13:33.154Z,4.24
2023-03-13T06:17:01.113Z,4.26
2023-03-13T06:20:24.930Z,4.28
2023-03-13T06:23:48.504Z,4.30
2023-03-13T06:27:12.705Z,4.30
2023-03-13T06:30:46.884Z,4.31
2023-03-13T06:34:13.613Z,4.32
2023-03-13T06:37:37.484Z,4.32
2023-03-13T06:41:02.016Z,4.36
2023-03-13T06:44:26.301Z,4.42
2023-03-13T06:47:51.766Z,4.49
2023-03-13T06:51:16.313Z,4.58
2023-03-13T06:54:39.863Z,4.66
2023-03-13T06:58:02.020Z,4.76
2023-03-13T07:01:25.246Z,4.84
2023-03-13T07:04:49.286Z,4.93
2023-03-13T07:08:12.870Z,5.03
2023-03-13T07:11:36.236Z,5.15
2023-03-13T07:15:00.326Z,5.27
2023-03-13T07:18:23.959Z,5.39
2023-03-13T07:21:49.290Z,5.53
2023-03-13T07:25:12.633Z,5.68
2023-03-13T07:28:37.803Z,5.80
2023-03-13T07:32:02.573Z,5.91
2023-03-13T07:35:26.375Z,6.05
2023-03-13T07:38:50.120Z,6.16
2023-03-13T07:42:14.228Z,6.30
2023-03-13T07:45:39.423Z,6.40
2023-03-13T07:49:02.810Z,6.52
2023-03-13T07:52:27.679Z,6.63
2023-03-13T07:55:59.089Z,6.76
2023-03-13T07:59:22.728Z,6.88
2023-03-13T08:02:46.660Z,6.97
2023-03-13T08:06:12.894Z,7.02
2023-03-13T08:09:36.370Z,7.10
2023-03-13T08:12:59.691Z,7.15
2023-03-13T08:16:26.013Z,7.22
2023-03-13T08:19:49.547Z,7.28
2023-03-13T08:23:12.850Z,7.33
2023-03-13T08:26:41.042Z,7.38
2023-03-13T08:30:05.561Z,7.39
2023-03-13T08:33:28.866Z,7.41
2023-03-13T08:36:52.801Z,7.45
2023-03-13T08:40:17.059Z,7.48
2023-03-13T08:43:40.651Z,7.53
2023-03-13T08:47:07.429Z,7.58
2023-03-13T08:50:32.147Z,7.64
2023-03-13T08:53:56.588Z,7.71
2023-03-13T08:57:20.388Z,7.77
2023-03-13T09:00:43.406Z,7.84
2023-03-13T09:04:07.786Z,7.93
2023-03-13T09:07:31.067Z,8.02
2023-03-13T09:10:57.110Z,8.07
2023-03-13T09:14:20.510Z,8.07
2023-03-13T09:17:43.815Z,8.12
2023-03-13T09:21:09.643Z,8.21
2023-03-13T09:24:33.944Z,8.29
2023-03-13T09:27:57.485Z,8.36
2023-03-13T09:31:22.824Z,8.40
2023-03-13T09:34:46.266Z,8.47
2023-03-13T09:38:09.752Z,8.53
2023-03-13T09:41:39.063Z,8.60
2023-03-13T09:45:08.142Z,8.59
2023-03-13T09:48:34.771Z,8.62
2023-03-13T09:52:07.551Z,8.63
2023-03-13T09:55:33.616Z,8.65
2023-03-13T09:59:02.490Z,8.71
2023-03-13T10:02:30.899Z,8.78
2023-03-13T10:05:59.546Z,8.81
2023-03-13T10:09:28.468Z,8.85
2023-03-13T10:12:58.101Z,8.86
2023-03-13T10:16:27.592Z,8.87
2023-03-13T10:19:57.140Z,8.92
2023-03-13T10:23:27.554Z,8.99
2023-03-13T10:26:50.511Z,8.98
2023-03-13T10:30:23.922Z,8.98
2023-03-13T10:33:50.369Z,8.98
2023-03-13T10:37:14.669Z,8.99
2023-03-13T10:40:39.658Z,9.00
2023-03-13T10:44:06.162Z,9.01
2023-03-13T10:47:34.576Z,9.03
2023-03-13T10:51:01.918Z,9.05
2023-03-13T10:54:27.175Z,9.11
2023-03-13T10:57:59.286Z,9.16
2023-03-13T11:01:24.964Z,9.18
2023-03-13T11:04:52.980Z,9.20
2023-03-13T11:08:25.421Z,9.23
2023-03-13T11:11:51.036Z,9.28
2023-03-13T11:15:19.145Z,9.30
2023-03-13T11:19:06.720Z,9.31
2023-03-13T11:22:41.627Z,9.32
2023-03-13T11:26:23.428Z,9.32
2023-03-13T11:29:56.132Z,9.30
2023-03-13T11:33:29.208Z,9.28
2023-03-13T11:37:01.758Z,9.27
2023-03-13T11:40:32.290Z,9.25
2023-03-13T11:44:19.406Z,9.22
2023-03-13T11:47:56.868Z,9.19
2023-03-13T11:51:25.208Z,9.20
2023-03-13T11:55:38.902Z,9.21
2023-03-13T11:59:21.666Z,9.22
2023-03-13T12:02:50.982Z,9.26
2023-03-13T12:06:28.184Z,9.28
2023-03-13T12:09:57.544Z,9.25
2023-03-13T12:13:27.662Z,9.23
2023-03-13T12:16:56.433Z,9.21
2023-03-13T12:20:25.615Z,9.17
2023-03-13T12:23:58.407Z,9.14
2023-03-13T12:27:32.552Z,9.13
2023-03-13T12:31:07.850Z,9.10
2023-03-13T12:34:35.022Z,9.08
2023-03-13T12:38:10.498Z,9.04
2023-03-13T12:41:42.836Z,9.06
2023-03-13T12:45:12.685Z,9.07
2023-03-13T12:49:00.707Z,9.05
2023-03-13T12:52:56.237Z,9.03
2023-03-13T12:56:35.061Z,9.04
2023-03-13T13:00:05.102Z,9.06
2023-03-13T13:03:35.845Z,9.07
2023-03-13T13:07:02.788Z,9.08
2023-03-13T13:10:29.150Z,9.10
2023-03-13T13:13:52.175Z,9.12
2023-03-13T13:17:23.616Z,9.15
2023-03-13T13:20:49.643Z,9.16
2023-03-13T13:24:48.770Z,9.17
2023-03-13T13:28:34.932Z,9.17
2023-03-13T13:32:01.005Z,9.21
2023-03-13T13:35:35.080Z,9.22
2023-03-13T13:38:59.525Z,9.25
2023-03-13T13:42:48.414Z,9.30
2023-03-13T13:46:24.045Z,9.34
2023-03-13T13:50:04.317Z,9.39
2023-03-13T13:53:34.256Z,9.42
2023-03-13T13:57:00.492Z,9.43
2023-03-13T14:00:29.476Z,9.43
2023-03-13T14:04:01.248Z,9.45
2023-03-13T14:07:30.526Z,9.50
2023-03-13T14:11:04.831Z,9.52
2023-03-13T14:14:28.633Z,9.54
2023-03-13T14:17:53.981Z,9.57
2023-03-13T14:21:23.099Z,9.59
2023-03-13T14:24:57.931Z,9.62
2023-03-13T14:28:26.529Z,9.65
2023-03-13T14:31:54.280Z,9.68
2023-03-13T14:35:22.000Z,9.71
2023-03-13T14:38:54.659Z,9.73
2023-03-13T14:42:19.925Z,9.76
2023-03-13T14:45:43.759Z,9.79
2023-03-13T14:49:14.289Z,9.82
2023-03-13T14:52:39.587Z,9.84
2023-03-13T14:56:18.826Z,9.84
2023-03-13T14:59:43.310Z,9.87
2023-03-13T15:03:30.276Z,9.91
2023-03-13T15:07:03.618Z,9.93
2023-03-13T15:10:32.443Z,9.95
2023-03-13T15:13:57.326Z,9.98
2023-03-13T15:17:25.068Z,10.00
2023-03-13T15:20:52.415Z,10.03
2023-03-13T15:24:17.828Z,10.04
2023-03-13T15:27:42.337Z,10.04
2023-03-13T15:31:06.917Z,10.04
2023-03-13T15:34:33.530Z,10.06
2023-03-13T15:37:58.665Z,10.09
2023-03-13T15:41:24.593Z,10.14
2023-03-13T15:44:48.692Z,10.15
2023-03-13T15:48:17.759Z,10.15
2023-03-13T15:51:40.719Z,10.16
2023-03-13T15:55:06.839Z,10.16
2023-03-13T15:58:31.203Z,10.16
2023-03-13T16:01:54.737Z,10.17
2023-03-13T16:05:21.003Z,10.18
2023-03-13T16:08:45.170Z,10.19
2023-03-13T16:12:09.705Z,10.22
2023-03-13T16:15:34.478Z,10.23
2023-03-13T16:18:58.865Z,10.26
2023-03-13T16:22:22.628Z,10.28
2023-03-13T16:25:49.240Z,10.28
2023-03-13T16:29:15.503Z,10.28
2023-03-13T16:32:39.648Z,10.30
2023-03-13T16:36:09.800Z,10.32
2023-03-13T16:39:33.518Z,10.34
2023-03-13T16:42:57.782Z,10.37
2023-03-13T16:46:28.131Z,10.38
2023-03-13T16:49:52.400Z,10.39
2023-03-13T16:53:15.914Z,10.39
2023-03-13T16:56:39.319Z,10.39
2023-03-13T17:00:07.130Z,10.38
2023-03-13T17:03:30.499Z,10.38
2023-03-13T17:06:54.900Z,10.40
2023-03-13T17:10:21.508Z,10.41
2023-03-13T17:13:46.207Z,10.44
2023-03-13T17:17:14.670Z,10.43
2023-03-13T17:20:38.011Z,10.43
2023-03-13T17:24:11.794Z,10.45
2023-03-13T17:27:38.722Z,10.43
2023-03-13T17:31:02.898Z,10.41
2023-03-13T17:34:29.875Z,10.38
2023-03-13T17:37:53.703Z,10.36
2023-03-13T17:41:19.579Z,10.32
2023-03-13T17:44:44.094Z,10.29
2023-03-13T17:48:13.195Z,10.27
2023-03-13T17:51:36.648Z,10.24
2023-03-13T17:55:03.148Z,10.22
2023-03-13T17:58:29.220Z,10.23
2023-03-13T18:01:53.502Z,10.22
2023-03-13T18:05:17.716Z,10.21
2023-03-13T18:08:40.960Z,10.22
2023-03-13T18:12:06.612Z,10.22
2023-03-13T18:15:30.062Z,10.22
2023-03-13T18:18:54.560Z,10.19
2023-03-13T18:22:21.023Z,10.18
2023-03-13T18:25:44.012Z,10.16
2023-03-13T18:29:19.899Z,10.14
2023-03-13T18:32:44.066Z,10.13
2023-03-13T18:36:16.880Z,10.12
2023-03-13T18:39:40.697Z,10.11
2023-03-13T18:43:05.853Z,10.13
2023-03-13T18:46:33.221Z,10.14
2023-03-13T18:49:56.623Z,10.14
2023-03-13T18:53:20.226Z,10.14
2023-03-13T18:56:45.024Z,10.15
2023-03-13T19:00:17.985Z,10.18
2023-03-13T19:03:41.980Z,10.20
2023-03-13T19:07:13.153Z,10.23
2023-03-13T19:10:38.058Z,10.25
2023-03-13T19:14:01.978Z,10.26
2023-03-13T19:17:28.484Z,10.26
2023-03-13T19:20:52.035Z,10.25
2023-03-13T19:24:15.881Z,10.23
2023-03-13T19:27:40.327Z,10.23
2023-03-13T19:31:04.140Z,10.25
2023-03-13T19:34:28.186Z,10.26
2023-03-13T19:37:52.291Z,10.27
2023-03-13T19:41:16.637Z,10.28
2023-03-13T19:44:40.904Z,10.28
2023-03-13T19:48:06.075Z,10.28
2023-03-13T19:51:30.647Z,10.27
2023-03-13T19:54:55.308Z,10.28
2023-03-13T19:58:19.442Z,10.29
2023-03-13T20:01:43.396Z,10.29
2023-03-13T20:05:10.102Z,10.30
2023-03-13T20:08:33.669Z,10.33
2023-03-13T20:11:57.010Z,10.34
2023-03-13T20:15:20.691Z,10.34
2023-03-13T20:18:43.381Z,10.35
2023-03-13T20:22:09.227Z,10.32
2023-03-13T20:25:32.675Z,10.32
2023-03-13T20:28:55.314Z,10.35
2023-03-13T20:32:18.738Z,10.35
2023-03-13T20:35:42.398Z,10.37
2023-03-13T20:39:06.479Z,10.38
2023-03-13T20:42:29.747Z,10.39
2023-03-13T20:45:53.781Z,10.40
2023-03-13T20:49:17.393Z,10.39
2023-03-13T20:52:41.514Z,10.38
2023-03-13T20:56:08.682Z,10.39
2023-03-13T20:59:32.462Z,10.41
2023-03-13T21:03:00.721Z,10.43
2023-03-13T21:06:27.280Z,10.48
2023-03-13T21:09:50.788Z,10.53
2023-03-13T21:13:14.034Z,10.58
2023-03-13T21:16:36.799Z,10.64
2023-03-13T21:20:00.082Z,10.68
2023-03-13T21:23:24.395Z,10.74
2023-03-13T21:26:48.527Z,10.80
2023-03-13T21:30:18.643Z,10.83
2023-03-13T21:33:44.602Z,10.87
2023-03-13T21:37:08.583Z,10.90
2023-03-13T21:40:32.906Z,10.92
2023-03-13T21:43:56.655Z,10.94
2023-03-13T21:47:24.023Z,10.95
2023-03-13T21:50:51.211Z,10.95
2023-03-13T21:54:18.701Z,10.94
2023-03-13T21:57:45.328Z,10.94
2023-03-13T22:01:09.177Z,10.94
2023-03-13T22:04:33.675Z,10.96
2023-03-13T22:07:58.267Z,10.98
2023-03-13T22:11:22.717Z,11.00
2023-03-13T22:14:46.098Z,11.04
2023-03-13T22:18:09.788Z,11.07
2023-03-13T22:21:33.041Z,11.10
2023-03-13T22:24:57.295Z,11.11
2023-03-13T22:28:21.549Z,11.13
2023-03-13T22:31:45.567Z,11.15
2023-03-13T22:35:10.132Z,11.15
2023-03-13T22:38:38.485Z,11.16
2023-03-13T22:42:02.088Z,11.14
2023-03-13T22:45:27.212Z,11.12
2023-03-13T22:48:50.493Z,11.09
2023-03-13T22:52:32.486Z,11.07
2023-03-13T22:56:01.955Z,11.06
2023-03-13T22:59:25.643Z,11.06
2023-03-13T23:02:49.646Z,11.08
2023-03-13T23:06:14.932Z,11.11
2023-03-13T23:09:39.002Z,11.13
2023-03-13T23:13:03.031Z,11.18
2023-03-13T23:16:26.117Z,11.24
2023-03-13T23:19:50.219Z,11.30
2023-03-13T23:23:13.616Z,11.35
2023-03-13T23:26:37.733Z,11.40
2023-03-13T23:30:03.894Z,11.45
2023-03-13T23:33:28.635Z,11.47
2023-03-13T23:36:52.072Z,11.49
2023-03-13T23:40:15.493Z,11.50
2023-03-13T23:43:38.922Z,11.49
2023-03-13T23:47:02.289Z,11.47
2023-03-13T23:50:26.168Z,11.48
2023-03-13T23:53:50.739Z,11.49
2023-03-13T23:57:14.373Z,11.52
